Terminal Aerodrome Forecast
Issued by NWS

Home | Current Version | Previous Version | Text Only | Print | Product List | Glossary On
Versions: 1 2 3 4 5 6 7 8 9 10 11 12 13 14 15 16 17 18 19 20 21 22 23 24 25 26 27 28 29 30
000
FTUS46 KLOX 181734
TAFLAX
TAF
KLAX 181734Z 1818/1924 11005KT 6SM HZ BKN024 BKN120
     FM182100 24008KT P6SM SCT025 BKN150
      TEMPO 1821/1823 BKN025
     FM190300 18010KT P6SM -SHRA BKN015 OVC090
     FM190600 13015G25KT 2SM +RA BR BKN007 OVC012
     FM191000 15012G22KT 3SM RA BR BKN007 OVC012
     FM191500 21014G25KT 3SM TSRA BR BKN005 OVC010CB
     FM192300 25018KT P6SM VCSH OVC015=

USA.gov is the U.S. government's official web portal to all federal, state and local government web resources and services.